Time;durP1;ratioP1;P1;durP2;ratioP2;P2;SDS_P1;SDS_P2;PMS_P1;PMS_P2;Temp;Humidity;BMP_temperature;BMP_pressure;BME280_temperature;BME280_humidity;BME280_pressure;Samples;Min_cycle;Max_cycle;Signal;HPM_P1;HPM_P2
2023/09/14 00:01:28;;;;;;;5.88;3.92;;;;;;;;;;4986568;28;20038;-68
2023/09/14 00:04:13;;;;;;;5.70;3.40;;;;;;;;;;4984273;28;20041;-82
2023/09/14 00:06:58;;;;;;;6.15;3.28;;;;;;;;;;4958104;28;20117;-76
2023/09/14 00:09:43;;;;;;;9.63;3.17;;;;;;;;;;4984089;28;20042;-75
2023/09/14 00:12:28;;;;;;;4.32;2.47;;;;;;;;;;4971013;28;20037;-75
2023/09/14 00:15:14;;;;;;;7.15;3.00;;;;;;;;;;4984153;28;20045;-74
2023/09/14 00:17:59;;;;;;;5.88;3.95;;;;;;;;;;4984762;28;20035;-75
2023/09/14 00:20:44;;;;;;;8.23;3.25;;;;;;;;;;4998278;28;20031;-75
2023/09/14 00:23:30;;;;;;;4.35;3.40;;;;;;;;;;4997308;28;20114;-76
2023/09/14 00:26:15;;;;;;;6.10;3.72;;;;;;;;;;4962582;28;20375;-76
2023/09/14 00:29:00;;;;;;;9.80;3.67;;;;;;;;;;4971403;28;20031;-75
2023/09/14 00:31:45;;;;;;;7.38;3.65;;;;;;;;;;4997432;28;20053;-75
2023/09/14 00:34:31;;;;;;;5.60;3.50;;;;;;;;;;4983993;28;20042;-75
2023/09/14 00:37:16;;;;;;;17.05;3.75;;;;;;;;;;4981225;28;20478;-75
2023/09/14 00:40:07;;;;;;;5.53;3.25;;;;;;;;;;4984392;28;20331;-75
2023/09/14 00:42:52;;;;;;;6.35;3.80;;;;;;;;;;4972450;28;20074;-69
2023/09/14 00:45:39;;;;;;;5.80;4.05;;;;;;;;;;4992959;28;20125;-68
2023/09/14 00:48:24;;;;;;;7.40;4.32;;;;;;;;;;4949197;29;20031;-66
2023/09/14 00:51:10;;;;;;;8.57;4.70;;;;;;;;;;4980433;28;20615;-67
2023/09/14 00:53:56;;;;;;;7.15;4.20;;;;;;;;;;4978715;28;20393;-66
2023/09/14 00:56:41;;;;;;;9.05;3.80;;;;;;;;;;4971600;28;20066;-67
2023/09/14 00:59:27;;;;;;;8.23;4.22;;;;;;;;;;4983189;28;20042;-68
2023/09/14 01:02:12;;;;;;;5.68;4.05;;;;;;;;;;4963039;28;20035;-70
2023/09/14 01:04:57;;;;;;;9.10;4.25;;;;;;;;;;4981800;28;20494;-68
2023/09/14 01:07:42;;;;;;;6.80;4.32;;;;;;;;;;4984152;28;20046;-67
2023/09/14 01:10:28;;;;;;;7.57;4.30;;;;;;;;;;4976425;28;20046;-69
2023/09/14 01:13:22;;;;;;;7.97;5.13;;;;;;;;;;4993793;28;20471;-67
2023/09/14 01:16:15;;;;;;;8.05;5.03;;;;;;;;;;4986969;28;20045;-70
2023/09/14 01:19:20;;;;;;;6.47;4.28;;;;;;;;;;4985499;28;20125;-75
2023/09/14 01:22:18;;;;;;;6.75;4.63;;;;;;;;;;4990029;28;20043;-75
2023/09/14 01:25:08;;;;;;;7.55;5.65;;;;;;;;;;4992251;28;20497;-76
2023/09/14 01:27:53;;;;;;;8.07;5.20;;;;;;;;;;4983546;28;20038;-74
2023/09/14 01:30:39;;;;;;;7.50;5.15;;;;;;;;;;4979492;28;20035;-77
2023/09/14 01:33:27;;;;;;;7.95;5.07;;;;;;;;;;4963092;28;20031;-75
2023/09/14 01:36:22;;;;;;;7.90;5.22;;;;;;;;;;4983455;28;20034;-72
2023/09/14 01:39:08;;;;;;;9.20;5.18;;;;;;;;;;4970101;28;20038;-68
2023/09/14 01:41:57;;;;;;;6.68;4.30;;;;;;;;;;4982935;28;20523;-67
2023/09/14 01:44:42;;;;;;;9.18;5.60;;;;;;;;;;4983133;28;20038;-68
2023/09/14 01:47:27;;;;;;;7.20;5.05;;;;;;;;;;4971093;28;20482;-68
2023/09/14 01:50:13;;;;;;;7.50;5.13;;;;;;;;;;4969230;28;20387;-67
2023/09/14 01:52:58;;;;;;;10.30;6.05;;;;;;;;;;4972078;28;20501;-68
2023/09/14 01:55:43;;;;;;;12.35;6.30;;;;;;;;;;4971235;28;20038;-68
2023/09/14 01:58:29;;;;;;;10.45;5.93;;;;;;;;;;4982588;28;20039;-66
2023/09/14 02:01:14;;;;;;;8.38;4.65;;;;;;;;;;4974080;28;20419;-65
2023/09/14 02:03:59;;;;;;;9.73;6.45;;;;;;;;;;4982757;28;20035;-66
2023/09/14 02:06:44;;;;;;;9.93;5.95;;;;;;;;;;4982456;28;20050;-66
2023/09/14 02:09:29;;;;;;;7.47;5.07;;;;;;;;;;4981607;28;20543;-66
2023/09/14 02:12:15;;;;;;;8.02;4.53;;;;;;;;;;4969394;28;20104;-68
2023/09/14 02:15:00;;;;;;;7.70;4.43;;;;;;;;;;4994766;28;20038;-76
2023/09/14 02:17:45;;;;;;;6.80;3.85;;;;;;;;;;4981530;28;20035;-69
2023/09/14 02:20:31;;;;;;;7.80;5.18;;;;;;;;;;4995248;28;20125;-69
2023/09/14 02:23:17;;;;;;;7.68;4.60;;;;;;;;;;4968222;28;20313;-70
2023/09/14 02:26:02;;;;;;;6.65;4.35;;;;;;;;;;4967367;28;20078;-70
2023/09/14 02:28:48;;;;;;;7.55;4.20;;;;;;;;;;4960364;28;20466;-70
2023/09/14 02:31:33;;;;;;;7.22;4.25;;;;;;;;;;4993870;28;20058;-70
2023/09/14 02:34:18;;;;;;;7.88;4.45;;;;;;;;;;4982303;28;20046;-69
2023/09/14 02:37:04;;;;;;;6.35;3.63;;;;;;;;;;4969383;28;20110;-68
2023/09/14 02:39:49;;;;;;;5.47;3.85;;;;;;;;;;4977222;28;20121;-66
2023/09/14 02:42:37;;;;;;;10.68;4.95;;;;;;;;;;4968379;28;20038;-67
2023/09/14 02:45:22;;;;;;;6.57;4.13;;;;;;;;;;4981491;28;20584;-69
2023/09/14 02:48:08;;;;;;;5.65;4.05;;;;;;;;;;4996177;28;20058;-68
2023/09/14 02:50:53;;;;;;;6.82;3.67;;;;;;;;;;4995491;28;20382;-69
2023/09/14 02:53:38;;;;;;;5.95;3.65;;;;;;;;;;5004985;28;20034;-68
2023/09/14 02:56:23;;;;;;;7.15;5.00;;;;;;;;;;4983004;28;20037;-68
2023/09/14 02:59:09;;;;;;;7.70;5.00;;;;;;;;;;4995767;28;20034;-68
2023/09/14 03:01:54;;;;;;;6.75;3.70;;;;;;;;;;4979489;28;20348;-66
2023/09/14 03:04:39;;;;;;;5.47;3.55;;;;;;;;;;4968628;28;20122;-68
2023/09/14 03:07:24;;;;;;;5.70;3.80;;;;;;;;;;4982140;28;20174;-66
2023/09/14 03:10:10;;;;;;;4.80;3.58;;;;;;;;;;4995166;28;20514;-67
2023/09/14 03:12:55;;;;;;;7.10;3.65;;;;;;;;;;4982770;28;20114;-73
2023/09/14 03:15:40;;;;;;;5.85;3.55;;;;;;;;;;4971990;28;20033;-76
2023/09/14 03:18:25;;;;;;;5.00;3.53;;;;;;;;;;4985318;28;20033;-75
2023/09/14 03:21:21;;;;;;;6.00;3.17;;;;;;;;;;4974455;28;20312;-75
2023/09/14 03:24:06;;;;;;;3.22;2.75;;;;;;;;;;4970854;28;20027;-76
2023/09/14 03:26:51;;;;;;;4.07;2.65;;;;;;;;;;4992571;28;20526;-69
2023/09/14 03:29:36;;;;;;;7.72;3.58;;;;;;;;;;4966738;28;20386;-68
2023/09/14 03:32:22;;;;;;;4.90;2.88;;;;;;;;;;4989590;28;20113;-67
2023/09/14 03:35:07;;;;;;;4.90;3.58;;;;;;;;;;4977848;28;20042;-67
2023/09/14 03:37:52;;;;;;;4.13;2.90;;;;;;;;;;4971945;28;20044;-68
2023/09/14 03:40:37;;;;;;;5.10;3.35;;;;;;;;;;4984959;28;20081;-66
2023/09/14 03:43:23;;;;;;;4.90;3.33;;;;;;;;;;4984766;28;20069;-67
2023/09/14 03:46:08;;;;;;;5.20;2.90;;;;;;;;;;4998675;28;20031;-85
2023/09/14 03:48:54;;;;;;;4.00;2.90;;;;;;;;;;5010252;28;20045;-67
2023/09/14 03:51:39;;;;;;;4.00;2.72;;;;;;;;;;4978502;28;20041;-68
2023/09/14 03:54:24;;;;;;;7.28;2.95;;;;;;;;;;5001223;28;20402;-66
2023/09/14 03:57:14;;;;;;;5.20;3.60;;;;;;;;;;4971335;28;20023;-68
2023/09/14 03:59:59;;;;;;;3.53;2.90;;;;;;;;;;4984232;28;20034;-68
2023/09/14 04:02:45;;;;;;;6.95;3.45;;;;;;;;;;4997820;28;20675;-69
2023/09/14 04:05:30;;;;;;;4.40;3.08;;;;;;;;;;4998927;28;20042;-68
2023/09/14 04:08:15;;;;;;;6.05;3.35;;;;;;;;;;4984654;28;21651;-70
2023/09/14 04:11:00;;;;;;;7.10;3.55;;;;;;;;;;4984317;28;20031;-70
2023/09/14 04:13:47;;;;;;;5.07;3.08;;;;;;;;;;4997629;28;20494;-70
2023/09/14 04:16:32;;;;;;;5.53;3.20;;;;;;;;;;4970626;28;20043;-70
2023/09/14 04:19:18;;;;;;;4.63;3.20;;;;;;;;;;4975078;28;20035;-70
2023/09/14 04:22:03;;;;;;;6.32;3.33;;;;;;;;;;4983720;28;20038;-69
2023/09/14 04:24:51;;;;;;;5.57;3.10;;;;;;;;;;4983559;28;20038;-70
2023/09/14 04:27:37;;;;;;;8.30;3.75;;;;;;;;;;4973277;28;20030;-68
2023/09/14 04:30:22;;;;;;;6.70;3.63;;;;;;;;;;4984054;28;20042;-69
2023/09/14 04:33:07;;;;;;;8.52;3.90;;;;;;;;;;4980977;28;20035;-69
2023/09/14 04:35:59;;;;;;;5.13;3.10;;;;;;;;;;4977820;28;20035;-69
2023/09/14 04:38:44;;;;;;;4.82;3.22;;;;;;;;;;4980268;28;20043;-69
2023/09/14 04:41:30;;;;;;;3.75;2.90;;;;;;;;;;4970171;28;20026;-69
2023/09/14 04:44:15;;;;;;;4.88;3.53;;;;;;;;;;4970801;28;20170;-83
2023/09/14 04:47:01;;;;;;;5.45;3.95;;;;;;;;;;4988168;28;20331;-82
2023/09/14 04:49:46;;;;;;;6.18;3.65;;;;;;;;;;4984061;28;20497;-84
2023/09/14 04:52:31;;;;;;;5.70;3.95;;;;;;;;;;4984766;28;20093;-86
2023/09/14 04:55:16;;;;;;;6.38;3.83;;;;;;;;;;4958893;28;20031;-83
2023/09/14 04:58:01;;;;;;;6.65;3.80;;;;;;;;;;4995252;28;20162;-85
2023/09/14 05:00:47;;;;;;;5.75;3.40;;;;;;;;;;4970622;28;20122;-84
2023/09/14 05:03:32;;;;;;;8.93;4.05;;;;;;;;;;4983865;28;20045;-75
2023/09/14 05:06:18;;;;;;;4.95;3.63;;;;;;;;;;4983439;28;20548;-74
2023/09/14 05:09:03;;;;;;;4.25;3.17;;;;;;;;;;4983282;28;20406;-74
2023/09/14 05:11:48;;;;;;;7.45;4.22;;;;;;;;;;4973523;28;20026;-74
2023/09/14 05:14:33;;;;;;;6.90;4.22;;;;;;;;;;4990173;28;20038;-75
2023/09/14 05:17:18;;;;;;;5.57;3.67;;;;;;;;;;4972084;28;20050;-82
2023/09/14 05:20:07;;;;;;;5.70;3.70;;;;;;;;;;4982423;28;20530;-65
2023/09/14 05:22:53;;;;;;;5.88;3.63;;;;;;;;;;4982595;28;20058;-67
2023/09/14 05:25:38;;;;;;;6.45;3.97;;;;;;;;;;4964437;28;20477;-67
2023/09/14 05:28:24;;;;;;;5.60;3.40;;;;;;;;;;4969409;28;20390;-65
2023/09/14 05:31:09;;;;;;;6.03;3.50;;;;;;;;;;4982787;28;20093;-66
2023/09/14 05:33:54;;;;;;;5.18;3.35;;;;;;;;;;4982111;28;20038;-66
2023/09/14 05:36:39;;;;;;;8.10;4.40;;;;;;;;;;4968659;28;20496;-68
2023/09/14 05:39:25;;;;;;;6.72;4.35;;;;;;;;;;4970992;28;20382;-76
2023/09/14 05:42:10;;;;;;;6.03;3.50;;;;;;;;;;4969967;28;20038;-74
2023/09/14 05:44:55;;;;;;;5.78;3.78;;;;;;;;;;4982738;28;20043;-75
2023/09/14 05:47:40;;;;;;;6.97;3.55;;;;;;;;;;4972908;28;20043;-76
2023/09/14 05:50:25;;;;;;;6.15;3.67;;;;;;;;;;4996356;28;20041;-76
2023/09/14 05:53:11;;;;;;;6.18;4.18;;;;;;;;;;4986875;28;20147;-69
2023/09/14 05:55:56;;;;;;;5.97;4.13;;;;;;;;;;4988765;28;20666;-88
2023/09/14 05:58:41;;;;;;;8.95;3.60;;;;;;;;;;4971419;28;20026;-75
2023/09/14 06:01:27;;;;;;;7.32;4.43;;;;;;;;;;4994430;28;20035;-76
2023/09/14 06:04:12;;;;;;;5.53;4.18;;;;;;;;;;4961516;28;20375;-77
2023/09/14 06:06:58;;;;;;;8.68;5.75;;;;;;;;;;4956202;28;20041;-76
2023/09/14 06:09:43;;;;;;;8.38;5.18;;;;;;;;;;4996226;28;20045;-76
2023/09/14 06:12:29;;;;;;;7.65;4.18;;;;;;;;;;4995786;28;20034;-75
2023/09/14 06:15:14;;;;;;;7.25;4.80;;;;;;;;;;4968995;28;20576;-67
2023/09/14 06:18:00;;;;;;;5.28;3.95;;;;;;;;;;4996799;28;20045;-68
2023/09/14 06:20:45;;;;;;;10.30;5.63;;;;;;;;;;4969109;28;20023;-68
2023/09/14 06:23:30;;;;;;;10.63;6.30;;;;;;;;;;4994885;28;20058;-68
2023/09/14 06:26:15;;;;;;;9.63;6.82;;;;;;;;;;4960957;28;20027;-68
2023/09/14 06:29:01;;;;;;;9.23;6.35;;;;;;;;;;4982817;28;20387;-70
2023/09/14 06:31:46;;;;;;;8.10;5.85;;;;;;;;;;4982633;28;20106;-68
2023/09/14 06:34:31;;;;;;;8.82;5.88;;;;;;;;;;4982182;28;20375;-74
2023/09/14 06:37:18;;;;;;;7.30;5.22;;;;;;;;;;5007159;28;20035;-74
2023/09/14 06:40:05;;;;;;;9.13;5.88;;;;;;;;;;4968727;28;20532;-73
2023/09/14 06:42:51;;;;;;;10.98;5.75;;;;;;;;;;4971098;28;20047;-73
2023/09/14 06:45:36;;;;;;;8.63;5.75;;;;;;;;;;4972227;28;20076;-74
2023/09/14 06:48:22;;;;;;;10.73;5.65;;;;;;;;;;4972044;28;20062;-73
2023/09/14 06:51:07;;;;;;;11.20;7.53;;;;;;;;;;4974357;28;20111;-68
2023/09/14 06:53:52;;;;;;;9.00;6.22;;;;;;;;;;5005876;28;20117;-89
2023/09/14 06:56:37;;;;;;;8.75;5.28;;;;;;;;;;4988094;28;20482;-89
2023/09/14 06:59:23;;;;;;;16.63;6.53;;;;;;;;;;4986916;28;20039;-89
2023/09/14 07:02:08;;;;;;;15.40;5.22;;;;;;;;;;4987225;28;20023;-89
2023/09/14 07:04:55;;;;;;;7.25;4.75;;;;;;;;;;4998987;28;20047;-88
2023/09/14 07:07:40;;;;;;;9.07;4.88;;;;;;;;;;4986701;28;20382;-68
2023/09/14 07:10:26;;;;;;;8.48;4.63;;;;;;;;;;4991606;28;20495;-66
2023/09/14 07:13:11;;;;;;;6.38;4.15;;;;;;;;;;4993991;28;20384;-67
2023/09/14 07:15:56;;;;;;;10.68;5.30;;;;;;;;;;4972668;28;20122;-67
2023/09/14 07:18:41;;;;;;;8.00;4.80;;;;;;;;;;4981900;28;20030;-66
2023/09/14 07:21:32;;;;;;;6.93;4.80;;;;;;;;;;4998102;28;20033;-69
2023/09/14 07:24:17;;;;;;;8.15;5.10;;;;;;;;;;4998602;28;20034;-66
2023/09/14 07:27:02;;;;;;;8.07;4.53;;;;;;;;;;4971473;28;20239;-70
2023/09/14 07:29:47;;;;;;;8.75;4.70;;;;;;;;;;4966268;28;20066;-70
2023/09/14 07:32:34;;;;;;;7.68;5.00;;;;;;;;;;4990045;28;20103;-71
2023/09/14 07:35:19;;;;;;;8.40;5.30;;;;;;;;;;4994187;28;20074;-71
2023/09/14 07:38:05;;;;;;;8.30;5.70;;;;;;;;;;4971853;28;20030;-70
2023/09/14 07:40:51;;;;;;;10.05;5.20;;;;;;;;;;4984599;28;20106;-70
2023/09/14 07:43:36;;;;;;;8.93;5.07;;;;;;;;;;4971213;28;20031;-66
2023/09/14 07:46:22;;;;;;;9.65;6.32;;;;;;;;;;4998949;28;20054;-74
2023/09/14 07:49:08;;;;;;;10.20;5.93;;;;;;;;;;4985002;28;20034;-68
2023/09/14 07:51:54;;;;;;;9.98;6.05;;;;;;;;;;4995994;28;20474;-67
2023/09/14 07:54:39;;;;;;;7.68;4.78;;;;;;;;;;4997590;28;20031;-68
2023/09/14 07:57:24;;;;;;;7.97;4.80;;;;;;;;;;4998046;28;20493;-67
2023/09/14 08:00:09;;;;;;;8.75;5.32;;;;;;;;;;4957559;28;20034;-67
2023/09/14 08:02:55;;;;;;;8.88;5.60;;;;;;;;;;4971232;28;20058;-76
2023/09/14 08:05:40;;;;;;;9.75;6.53;;;;;;;;;;4998610;28;20035;-70
2023/09/14 08:08:26;;;;;;;11.55;6.68;;;;;;;;;;4984626;28;20049;-70
2023/09/14 08:11:11;;;;;;;11.63;6.22;;;;;;;;;;4984694;28;20471;-70
2023/09/14 08:13:56;;;;;;;10.13;6.47;;;;;;;;;;4994374;28;20038;-70
2023/09/14 08:16:41;;;;;;;8.00;5.13;;;;;;;;;;4985354;28;20030;-69
2023/09/14 08:19:27;;;;;;;10.23;6.18;;;;;;;;;;4963238;28;20435;-70
2023/09/14 08:22:12;;;;;;;10.38;5.85;;;;;;;;;;4971277;28;20058;-71
2023/09/14 08:25:00;;;;;;;8.80;5.97;;;;;;;;;;4983624;28;20130;-75
2023/09/14 08:27:45;;;;;;;12.47;7.40;;;;;;;;;;4983961;28;20034;-75
2023/09/14 08:30:31;;;;;;;8.27;6.38;;;;;;;;;;4973506;28;20084;-75
2023/09/14 08:33:16;;;;;;;7.40;5.50;;;;;;;;;;4986991;28;20462;-75
2023/09/14 08:36:01;;;;;;;10.77;6.03;;;;;;;;;;4991890;28;20038;-75
2023/09/14 08:38:46;;;;;;;9.45;5.85;;;;;;;;;;4990908;28;20038;-68
2023/09/14 08:41:43;;;;;;;9.27;5.63;;;;;;;;;;4984611;28;20042;-68
2023/09/14 08:44:32;;;;;;;9.60;6.13;;;;;;;;;;5000809;28;20035;-90
2023/09/14 08:47:17;;;;;;;9.98;5.82;;;;;;;;;;4969292;28;20098;-90
2023/09/14 08:50:03;;;;;;;9.30;6.55;;;;;;;;;;4990836;28;20038;-90
2023/09/14 08:52:48;;;;;;;9.70;5.32;;;;;;;;;;5004499;28;20039;-90
2023/09/14 08:55:37;;;;;;;8.85;5.38;;;;;;;;;;4998429;28;20073;-88
2023/09/14 08:58:23;;;;;;;8.10;5.30;;;;;;;;;;4959221;28;20027;-83
2023/09/14 09:01:10;;;;;;;9.00;5.43;;;;;;;;;;4997330;28;20038;-66
2023/09/14 09:03:55;;;;;;;9.75;6.13;;;;;;;;;;4993082;28;20034;-65
2023/09/14 09:06:41;;;;;;;8.65;5.43;;;;;;;;;;4971138;28;20543;-68
2023/09/14 09:09:28;;;;;;;8.38;5.68;;;;;;;;;;4970765;28;20031;-67
2023/09/14 09:12:13;;;;;;;8.57;5.47;;;;;;;;;;4973210;28;20101;-65
2023/09/14 09:15:00;;;;;;;8.27;5.80;;;;;;;;;;4982388;28;20089;-67
2023/09/14 09:17:45;;;;;;;10.05;4.93;;;;;;;;;;4982451;28;20474;-74
2023/09/14 09:20:31;;;;;;;13.65;5.93;;;;;;;;;;4985821;28;20038;-90
2023/09/14 09:23:19;;;;;;;8.40;5.30;;;;;;;;;;4987311;28;20109;-89
2023/09/14 09:26:05;;;;;;;7.50;4.63;;;;;;;;;;4983986;28;20438;-89
2023/09/14 09:28:50;;;;;;;8.23;4.85;;;;;;;;;;5001738;28;20049;-90
2023/09/14 09:31:41;;;;;;;7.95;5.18;;;;;;;;;;4972408;28;20031;-88
2023/09/14 09:34:33;;;;;;;9.40;5.72;;;;;;;;;;4985847;28;20101;-68
2023/09/14 09:37:18;;;;;;;7.72;4.95;;;;;;;;;;4995718;28;20074;-69
2023/09/14 09:40:04;;;;;;;11.43;5.88;;;;;;;;;;5006483;28;20031;-69
2023/09/14 09:42:50;;;;;;;7.00;4.97;;;;;;;;;;4982996;28;20501;-67
2023/09/14 09:45:38;;;;;;;7.38;4.97;;;;;;;;;;4985758;28;20089;-67
2023/09/14 09:48:27;;;;;;;8.60;4.65;;;;;;;;;;4970759;28;20474;-65
2023/09/14 09:51:12;;;;;;;7.97;5.20;;;;;;;;;;4968813;28;20422;-68
2023/09/14 09:54:04;;;;;;;7.63;4.05;;;;;;;;;;4993791;28;20269;-68
2023/09/14 09:56:51;;;;;;;7.78;5.32;;;;;;;;;;4970474;28;20113;-68
2023/09/14 09:59:36;;;;;;;7.10;5.00;;;;;;;;;;4995775;28;20065;-67
2023/09/14 10:02:31;;;;;;;5.25;3.50;;;;;;;;;;4949210;29;20511;-67
2023/09/14 10:05:25;;;;;;;7.45;4.35;;;;;;;;;;4969975;28;20035;-68
2023/09/14 10:08:12;;;;;;;7.97;4.28;;;;;;;;;;4981920;28;20508;-67
2023/09/14 10:10:58;;;;;;;9.73;3.65;;;;;;;;;;4969186;28;20093;-74
2023/09/14 10:13:43;;;;;;;8.35;4.22;;;;;;;;;;4982485;28;20110;-74
2023/09/14 10:16:30;;;;;;;6.60;4.32;;;;;;;;;;4982232;28;20039;-73
2023/09/14 10:19:15;;;;;;;5.38;4.03;;;;;;;;;;4982731;28;20038;-74
2023/09/14 10:22:01;;;;;;;5.75;3.85;;;;;;;;;;4995207;28;20038;-73
2023/09/14 10:24:46;;;;;;;6.10;3.40;;;;;;;;;;4996027;28;20026;-74
2023/09/14 10:27:32;;;;;;;6.57;3.40;;;;;;;;;;4962436;28;20046;-74
2023/09/14 10:30:18;;;;;;;5.20;3.50;;;;;;;;;;4991136;28;20031;-75
2023/09/14 10:33:06;;;;;;;5.63;3.50;;;;;;;;;;4978421;28;20470;-74
2023/09/14 10:35:53;;;;;;;6.70;3.60;;;;;;;;;;4985294;28;20047;-74
2023/09/14 10:38:42;;;;;;;5.57;3.78;;;;;;;;;;4990023;28;20026;-74
2023/09/14 10:41:28;;;;;;;7.95;3.97;;;;;;;;;;4990243;28;20074;-75
2023/09/14 10:44:14;;;;;;;6.60;3.70;;;;;;;;;;4968991;28;20089;-74
2023/09/14 10:47:01;;;;;;;6.00;3.80;;;;;;;;;;4999447;28;20043;-75
2023/09/14 10:49:47;;;;;;;5.35;3.50;;;;;;;;;;4981703;28;20489;-77
2023/09/14 10:52:33;;;;;;;7.75;3.83;;;;;;;;;;4968335;28;20046;-75
2023/09/14 10:55:23;;;;;;;4.72;3.40;;;;;;;;;;4979460;28;20459;-70
2023/09/14 10:58:12;;;;;;;6.63;4.13;;;;;;;;;;4995155;28;20165;-71
2023/09/14 11:00:58;;;;;;;6.90;4.25;;;;;;;;;;4982203;28;20042;-72
2023/09/14 11:04:02;;;;;;;6.75;3.83;;;;;;;;;;4967113;28;20034;-71
2023/09/14 11:06:52;;;;;;;5.70;3.17;;;;;;;;;;4981465;28;20417;-73
2023/09/14 11:09:57;;;;;;;7.32;3.65;;;;;;;;;;4968695;28;20031;-74
2023/09/14 11:12:43;;;;;;;6.80;3.10;;;;;;;;;;4968559;28;20234;-71
2023/09/14 11:15:32;;;;;;;5.72;3.03;;;;;;;;;;4995673;28;20066;-69
2023/09/14 11:18:17;;;;;;;7.25;3.58;;;;;;;;;;4981015;28;20038;-70
2023/09/14 11:21:03;;;;;;;6.65;2.92;;;;;;;;;;4958163;28;20129;-71
2023/09/14 11:23:49;;;;;;;4.45;2.63;;;;;;;;;;4993803;28;20045;-71
2023/09/14 11:26:38;;;;;;;8.93;3.55;;;;;;;;;;4989429;28;20501;-66
2023/09/14 11:29:23;;;;;;;;;;;;;;;;;;4981985;28;20039;-69
2023/09/14 11:32:09;;;;;;;4.70;3.13;;;;;;;;;;4985405;28;19913;-67
2023/09/14 11:34:57;;;;;;;7.45;4.45;;;;;;;;;;4982729;28;20042;-69
2023/09/14 11:37:43;;;;;;;7.43;4.10;;;;;;;;;;4971380;28;20050;-67
2023/09/14 11:40:30;;;;;;;6.20;3.75;;;;;;;;;;4971542;28;20554;-69
2023/09/14 11:43:38;;;;;;;6.13;3.38;;;;;;;;;;4997812;28;20069;-65
2023/09/14 11:46:23;;;;;;;6.15;3.45;;;;;;;;;;4991879;28;20046;-88
2023/09/14 11:49:08;;;;;;;6.32;3.90;;;;;;;;;;4999989;28;20042;-90
2023/09/14 11:51:54;;;;;;;6.55;3.72;;;;;;;;;;4974582;28;20073;-86
2023/09/14 11:54:44;;;;;;;7.35;3.55;;;;;;;;;;4997582;28;20045;-89
2023/09/14 11:57:29;;;;;;;7.07;3.60;;;;;;;;;;4985637;28;20054;-88
2023/09/14 12:00:15;;;;;;;8.90;3.83;;;;;;;;;;5011103;28;20106;-85
2023/09/14 12:03:00;;;;;;;7.78;3.55;;;;;;;;;;4984531;28;20070;-65
2023/09/14 12:05:47;;;;;;;4.60;3.03;;;;;;;;;;4970838;28;20080;-64
2023/09/14 12:08:32;;;;;;;3.97;2.90;;;;;;;;;;4984078;28;20540;-64
2023/09/14 12:11:18;;;;;;;9.82;3.67;;;;;;;;;;4983709;28;20170;-65
2023/09/14 12:14:04;;;;;;;6.05;3.58;;;;;;;;;;4971346;28;20039;-65
2023/09/14 12:16:49;;;;;;;6.70;3.70;;;;;;;;;;4984272;28;20034;-65
2023/09/14 12:19:43;;;;;;;11.38;4.60;;;;;;;;;;4996035;28;20062;-68
2023/09/14 12:22:30;;;;;;;6.88;3.35;;;;;;;;;;4960180;28;20061;-67
2023/09/14 12:25:17;;;;;;;6.60;3.47;;;;;;;;;;4968045;28;20039;-67
2023/09/14 12:28:03;;;;;;;7.70;3.50;;;;;;;;;;5010131;28;20113;-67
2023/09/14 12:30:49;;;;;;;6.30;3.20;;;;;;;;;;4970761;28;20102;-67
2023/09/14 12:33:34;;;;;;;5.07;3.20;;;;;;;;;;4983727;28;20030;-66
2023/09/14 12:36:20;;;;;;;11.10;3.30;;;;;;;;;;4960823;28;20676;-68
2023/09/14 12:39:11;;;;;;;3.58;2.63;;;;;;;;;;4968964;28;20033;-77
2023/09/14 12:41:58;;;;;;;5.45;3.05;;;;;;;;;;4985339;28;20126;-74
2023/09/14 12:44:43;;;;;;;4.95;2.80;;;;;;;;;;4983575;28;20517;-72
2023/09/14 12:47:28;;;;;;;7.38;3.97;;;;;;;;;;4974388;28;20050;-73
2023/09/14 12:50:17;;;;;;;5.00;3.13;;;;;;;;;;4997360;28;20043;-73
2023/09/14 12:53:09;;;;;;;7.47;2.85;;;;;;;;;;4970710;28;20038;-73
2023/09/14 12:55:54;;;;;;;3.08;2.20;;;;;;;;;;4970442;28;20046;-73
2023/09/14 12:58:41;;;;;;;7.60;2.92;;;;;;;;;;4997813;28;20042;-67
2023/09/14 13:01:26;;;;;;;4.55;2.45;;;;;;;;;;4983197;28;20035;-72
2023/09/14 13:04:11;;;;;;;7.00;2.78;;;;;;;;;;4989929;28;20564;-73
2023/09/14 13:06:57;;;;;;;5.00;2.33;;;;;;;;;;4982729;28;20544;-73
2023/09/14 13:09:42;;;;;;;10.55;4.85;;;;;;;;;;4970945;28;20101;-73
2023/09/14 13:12:27;;;;;;;3.53;2.25;;;;;;;;;;4993731;28;20101;-74
2023/09/14 13:15:17;;;;;;;4.25;2.47;;;;;;;;;;4996740;28;20528;-67
2023/09/14 13:18:04;;;;;;;4.82;2.88;;;;;;;;;;4984719;28;20096;-90
2023/09/14 13:20:50;;;;;;;5.47;3.47;;;;;;;;;;4993731;28;20038;-89
2023/09/14 13:23:35;;;;;;;5.13;3.08;;;;;;;;;;4985091;28;20173;-88
2023/09/14 13:26:20;;;;;;;5.75;3.00;;;;;;;;;;4985345;28;20039;-90
2023/09/14 13:29:06;;;;;;;6.60;3.10;;;;;;;;;;4959577;28;20045;-91
2023/09/14 13:31:51;;;;;;;3.13;2.28;;;;;;;;;;4985010;28;20033;-92
2023/09/14 13:34:36;;;;;;;5.32;2.80;;;;;;;;;;4997711;28;20105;-66
2023/09/14 13:37:21;;;;;;;5.28;2.40;;;;;;;;;;4982966;28;20023;-67
2023/09/14 13:40:29;;;;;;;6.60;3.22;;;;;;;;;;4969609;28;20097;-66
2023/09/14 13:43:13;;;;;;;5.90;2.53;;;;;;;;;;4996394;28;20177;-67
2023/09/14 13:45:58;;;;;;;3.97;2.67;;;;;;;;;;4986452;28;20030;-66
2023/09/14 13:48:43;;;;;;;4.78;2.28;;;;;;;;;;4997059;28;20075;-68
2023/09/14 13:51:28;;;;;;;3.38;2.17;;;;;;;;;;4996351;28;20071;-67
2023/09/14 13:54:14;;;;;;;2.63;1.77;;;;;;;;;;5009858;28;20078;-69
2023/09/14 13:56:59;;;;;;;3.55;2.45;;;;;;;;;;4989209;28;20105;-92
2023/09/14 13:59:49;;;;;;;4.57;2.50;;;;;;;;;;4991969;28;20027;-91
2023/09/14 14:02:34;;;;;;;2.55;1.98;;;;;;;;;;4984053;28;20030;-92
2023/09/14 14:05:19;;;;;;;5.63;2.50;;;;;;;;;;4974447;28;20038;-90
2023/09/14 14:08:05;;;;;;;3.75;2.47;;;;;;;;;;5001798;28;20046;-90
2023/09/14 14:10:50;;;;;;;4.40;2.40;;;;;;;;;;4982842;28;20023;-91
2023/09/14 14:13:35;;;;;;;6.68;3.30;;;;;;;;;;4983337;28;20035;-70
2023/09/14 14:16:21;;;;;;;4.55;2.05;;;;;;;;;;4968662;28;20568;-71
2023/09/14 14:19:06;;;;;;;4.13;2.50;;;;;;;;;;4981180;28;20022;-72
2023/09/14 14:21:51;;;;;;;3.42;2.28;;;;;;;;;;4954859;28;20093;-71
2023/09/14 14:24:36;;;;;;;4.30;2.08;;;;;;;;;;4970651;28;20375;-71
2023/09/14 14:27:22;;;;;;;4.20;1.95;;;;;;;;;;4949448;28;20443;-70
2023/09/14 14:30:08;;;;;;;1.88;1.63;;;;;;;;;;5004805;28;20039;-68
2023/09/14 14:32:55;;;;;;;3.03;1.80;;;;;;;;;;4981276;28;20070;-74
2023/09/14 14:35:40;;;;;;;2.72;1.83;;;;;;;;;;4991550;28;20039;-74
2023/09/14 14:38:25;;;;;;;3.53;2.17;;;;;;;;;;4995933;28;20432;-74
2023/09/14 14:41:10;;;;;;;2.50;1.90;;;;;;;;;;4990085;28;20081;-74
2023/09/14 14:43:55;;;;;;;3.80;2.42;;;;;;;;;;4982361;28;20110;-72
2023/09/14 14:46:41;;;;;;;3.20;1.98;;;;;;;;;;4999874;28;20038;-73
2023/09/14 14:49:26;;;;;;;4.30;2.33;;;;;;;;;;4998599;28;20042;-77
2023/09/14 14:52:11;;;;;;;3.08;2.45;;;;;;;;;;4984788;28;20381;-91
2023/09/14 14:54:56;;;;;;;3.92;2.30;;;;;;;;;;4980209;28;20031;-90
2023/09/14 14:57:42;;;;;;;4.32;2.38;;;;;;;;;;4966094;28;20031;-91
2023/09/14 15:00:27;;;;;;;5.75;2.42;;;;;;;;;;4994435;28;20045;-91
2023/09/14 15:03:13;;;;;;;3.88;2.67;;;;;;;;;;4987421;28;20122;-90
2023/09/14 15:06:02;;;;;;;3.70;2.47;;;;;;;;;;4997573;28;20109;-67
2023/09/14 15:08:47;;;;;;;5.65;3.08;;;;;;;;;;4971605;28;20046;-74
2023/09/14 15:11:32;;;;;;;4.22;2.45;;;;;;;;;;4971641;28;20030;-74
2023/09/14 15:14:18;;;;;;;6.35;2.88;;;;;;;;;;4958573;28;20039;-76
2023/09/14 15:17:03;;;;;;;7.35;2.72;;;;;;;;;;4999097;28;20070;-74
2023/09/14 15:19:50;;;;;;;6.85;2.60;;;;;;;;;;4985622;28;20035;-72
2023/09/14 15:22:35;;;;;;;6.82;2.40;;;;;;;;;;4999371;28;20039;-76
2023/09/14 15:25:21;;;;;;;4.20;2.67;;;;;;;;;;4986020;28;20030;-69
2023/09/14 15:28:06;;;;;;;5.40;2.72;;;;;;;;;;4985365;28;20057;-75
2023/09/14 15:30:52;;;;;;;5.93;3.00;;;;;;;;;;4997506;28;20035;-76
2023/09/14 15:33:37;;;;;;;8.82;2.75;;;;;;;;;;4998555;28;20035;-79
2023/09/14 15:36:22;;;;;;;4.28;2.60;;;;;;;;;;4948048;28;20065;-76
2023/09/14 15:39:08;;;;;;;5.57;2.72;;;;;;;;;;4971350;28;20034;-75
2023/09/14 15:41:53;;;;;;;3.35;2.08;;;;;;;;;;4985053;28;20034;-75
2023/09/14 15:44:43;;;;;;;4.85;2.85;;;;;;;;;;4985252;28;20105;-68
2023/09/14 15:47:28;;;;;;;4.13;2.35;;;;;;;;;;5000826;28;20051;-67
2023/09/14 15:50:14;;;;;;;3.03;2.20;;;;;;;;;;4982545;28;20034;-67
2023/09/14 15:52:59;;;;;;;2.85;2.10;;;;;;;;;;5014214;28;20140;-67
2023/09/14 15:55:47;;;;;;;3.17;2.35;;;;;;;;;;4992741;28;20031;-66
2023/09/14 15:58:33;;;;;;;5.13;2.65;;;;;;;;;;4984693;28;20046;-69
2023/09/14 16:01:19;;;;;;;3.63;2.35;;;;;;;;;;4973032;28;20122;-70
2023/09/14 16:04:04;;;;;;;5.13;3.05;;;;;;;;;;4963361;28;20026;-89
2023/09/14 16:06:50;;;;;;;4.07;2.80;;;;;;;;;;5013232;28;20270;-91
2023/09/14 16:09:36;;;;;;;4.82;2.38;;;;;;;;;;4998892;28;20081;-91
2023/09/14 16:12:21;;;;;;;3.22;2.40;;;;;;;;;;4972399;28;20062;-89
2023/09/14 16:15:10;;;;;;;3.58;2.85;;;;;;;;;;4985636;28;20065;-88
2023/09/14 16:17:56;;;;;;;5.15;2.75;;;;;;;;;;5000161;28;20035;-89
2023/09/14 16:20:43;;;;;;;9.18;3.38;;;;;;;;;;4984586;28;20042;-67
2023/09/14 16:23:29;;;;;;;5.15;2.50;;;;;;;;;;4983012;28;20034;-67
2023/09/14 16:26:14;;;;;;;3.47;2.58;;;;;;;;;;4967502;28;20622;-65
2023/09/14 16:28:59;;;;;;;3.15;2.00;;;;;;;;;;4971164;28;20162;-66
2023/09/14 16:31:45;;;;;;;4.75;2.50;;;;;;;;;;4988091;28;20109;-65
2023/09/14 16:34:30;;;;;;;4.68;2.45;;;;;;;;;;4998194;28;20035;-67
2023/09/14 16:37:15;;;;;;;3.75;2.50;;;;;;;;;;4972132;28;20041;-76